Aviation Digital Data Service (ADDS)

Output produced by METARs form (0121 UTC 01 December 2022)
found at http://aviationweather.gov/metar/data/
 
KTCC 302329Z 0100/0124 20012G20KT P6SM BKN200 
     FM010300 22012KT P6SM SCT200 
     FM011700 22020G30KT P6SM SCT250